sensor_id;sensor_type;location;lat;lon;timestamp;pressure;altitude;pressure_sealevel;temperature;humidity
59190;BME280;50749;51.636;4.948;2023-01-15T00:00:20;99927.84;;;17.94;56.35
59190;BME280;50749;51.636;4.948;2023-01-15T00:03:06;99924.69;;;17.92;56.44
59190;BME280;50749;51.636;4.948;2023-01-15T00:05:35;99927.81;;;17.91;56.36
59190;BME280;50749;51.636;4.948;2023-01-15T00:08:01;99922.25;;;17.87;56.11
59190;BME280;50749;51.636;4.948;2023-01-15T00:10:27;99924.66;;;17.89;56.27
59190;BME280;50749;51.636;4.948;2023-01-15T00:12:53;99931.34;;;17.88;56.19
59190;BME280;50749;51.636;4.948;2023-01-15T00:15:19;99933.31;;;17.87;56.15
59190;BME280;50749;51.636;4.948;2023-01-15T00:17:45;99936.09;;;17.87;55.97
59190;BME280;50749;51.636;4.948;2023-01-15T00:20:11;99923.78;;;17.85;55.82
59190;BME280;50749;51.636;4.948;2023-01-15T00:22:37;99933.66;;;17.86;55.70
59190;BME280;50749;51.636;4.948;2023-01-15T00:25:03;99932.44;;;17.83;55.81
59190;BME280;50749;51.636;4.948;2023-01-15T00:27:48;99930.88;;;17.82;56.08
59190;BME280;50749;51.636;4.948;2023-01-15T00:30:14;99918.19;;;17.77;55.58
59190;BME280;50749;51.636;4.948;2023-01-15T00:32:42;99915.81;;;17.79;55.50
59190;BME280;50749;51.636;4.948;2023-01-15T00:35:13;99910.66;;;17.78;55.56
59190;BME280;50749;51.636;4.948;2023-01-15T00:37:39;99915.41;;;17.77;55.57
59190;BME280;50749;51.636;4.948;2023-01-15T00:40:05;99917.75;;;17.75;55.63
59190;BME280;50749;51.636;4.948;2023-01-15T00:42:32;99929.19;;;17.74;55.58
59190;BME280;50749;51.636;4.948;2023-01-15T00:44:57;99930.38;;;17.73;55.80
59190;BME280;50749;51.636;4.948;2023-01-15T00:47:23;99926.00;;;17.72;55.61
59190;BME280;50749;51.636;4.948;2023-01-15T00:49:49;99921.66;;;17.71;55.22
59190;BME280;50749;51.636;4.948;2023-01-15T00:52:16;99935.47;;;17.71;55.52
59190;BME280;50749;51.636;4.948;2023-01-15T00:54:42;99933.88;;;17.70;55.59
59190;BME280;50749;51.636;4.948;2023-01-15T00:57:08;99933.09;;;17.69;55.58
59190;BME280;50749;51.636;4.948;2023-01-15T00:59:35;99933.88;;;17.70;55.21
59190;BME280;50749;51.636;4.948;2023-01-15T01:02:01;99931.50;;;17.68;55.59
59190;BME280;50749;51.636;4.948;2023-01-15T01:04:27;99946.50;;;17.67;55.60
59190;BME280;50749;51.636;4.948;2023-01-15T01:06:53;99938.22;;;17.67;55.16
59190;BME280;50749;51.636;4.948;2023-01-15T01:09:19;99939.38;;;17.66;55.54
59190;BME280;50749;51.636;4.948;2023-01-15T01:11:45;99936.19;;;17.64;55.26
59190;BME280;50749;51.636;4.948;2023-01-15T01:14:12;99938.59;;;17.66;55.00
59190;BME280;50749;51.636;4.948;2023-01-15T01:16:39;99940.13;;;17.63;54.99
59190;BME280;50749;51.636;4.948;2023-01-15T01:19:24;99934.59;;;17.63;55.26
59190;BME280;50749;51.636;4.948;2023-01-15T01:21:51;99944.84;;;17.62;55.17
59190;BME280;50749;51.636;4.948;2023-01-15T01:24:20;99936.16;;;17.60;55.11
59190;BME280;50749;51.636;4.948;2023-01-15T01:26:46;99931.41;;;17.61;55.02
59190;BME280;50749;51.636;4.948;2023-01-15T01:29:18;99936.16;;;17.60;55.18
59190;BME280;50749;51.636;4.948;2023-01-15T01:31:45;99939.72;;;17.61;55.01
59190;BME280;50749;51.636;4.948;2023-01-15T01:34:11;99941.69;;;17.60;54.93
59190;BME280;50749;51.636;4.948;2023-01-15T01:36:40;99945.97;;;17.58;54.82
59190;BME280;50749;51.636;4.948;2023-01-15T01:39:14;99951.88;;;17.56;54.85
59190;BME280;50749;51.636;4.948;2023-01-15T01:41:40;99945.56;;;17.56;54.96
59190;BME280;50749;51.636;4.948;2023-01-15T01:44:57;99949.50;;;17.55;55.21
59190;BME280;50749;51.636;4.948;2023-01-15T01:46:53;99947.94;;;17.54;54.83
59190;BME280;50749;51.636;4.948;2023-01-15T01:49:19;99948.72;;;17.54;55.00
59190;BME280;50749;51.636;4.948;2023-01-15T01:51:50;99961.75;;;17.54;55.08
59190;BME280;50749;51.636;4.948;2023-01-15T01:54:18;99953.44;;;17.54;54.98
59190;BME280;50749;51.636;4.948;2023-01-15T01:56:48;99947.09;;;17.53;54.75
59190;BME280;50749;51.636;4.948;2023-01-15T01:59:15;99939.22;;;17.52;54.65
59190;BME280;50749;51.636;4.948;2023-01-15T02:01:42;99943.16;;;17.51;54.57
59190;BME280;50749;51.636;4.948;2023-01-15T02:04:09;99943.16;;;17.51;54.72
59190;BME280;50749;51.636;4.948;2023-01-15T02:06:37;99945.50;;;17.49;54.68
59190;BME280;50749;51.636;4.948;2023-01-15T02:09:04;99947.44;;;17.48;54.86
59190;BME280;50749;51.636;4.948;2023-01-15T02:11:32;99943.09;;;17.47;54.76
59190;BME280;50749;51.636;4.948;2023-01-15T02:14:06;99937.59;;;17.47;54.72
59190;BME280;50749;51.636;4.948;2023-01-15T02:16:40;99939.53;;;17.46;54.71
59190;BME280;50749;51.636;4.948;2023-01-15T02:22:08;99935.19;;;17.45;54.67
59190;BME280;50749;51.636;4.948;2023-01-15T02:25:09;99945.84;;;17.43;54.75
59190;BME280;50749;51.636;4.948;2023-01-15T02:27:44;99932.81;;;17.44;54.45
59190;BME280;50749;51.636;4.948;2023-01-15T02:32:49;99924.09;;;17.42;54.50
59190;BME280;50749;51.636;4.948;2023-01-15T02:35:36;99927.25;;;17.40;54.34
59190;BME280;50749;51.636;4.948;2023-01-15T02:38:07;99928.41;;;17.39;54.46
59190;BME280;50749;51.636;4.948;2023-01-15T02:40:37;99935.91;;;17.39;54.47
59190;BME280;50749;51.636;4.948;2023-01-15T02:43:05;99935.91;;;17.39;54.41
59190;BME280;50749;51.636;4.948;2023-01-15T02:45:35;99946.16;;;17.38;54.40
59190;BME280;50749;51.636;4.948;2023-01-15T02:48:09;99943.78;;;17.37;54.43
59190;BME280;50749;51.636;4.948;2023-01-15T02:50:38;99932.72;;;17.37;54.32
59190;BME280;50749;51.636;4.948;2023-01-15T02:53:08;99923.63;;;17.36;54.33
59190;BME280;50749;51.636;4.948;2023-01-15T02:55:39;99924.81;;;17.35;54.26
59190;BME280;50749;51.636;4.948;2023-01-15T02:58:11;99929.16;;;17.36;53.97
59190;BME280;50749;51.636;4.948;2023-01-15T03:00:41;99931.13;;;17.36;54.34
59190;BME280;50749;51.636;4.948;2023-01-15T03:03:27;99924.00;;;17.35;54.16
59190;BME280;50749;51.636;4.948;2023-01-15T03:08:21;99927.94;;;17.34;54.39
59190;BME280;50749;51.636;4.948;2023-01-15T03:11:14;99931.09;;;17.32;54.48
59190;BME280;50749;51.636;4.948;2023-01-15T03:21:36;99916.47;;;17.32;54.01
59190;BME280;50749;51.636;4.948;2023-01-15T03:24:05;99910.50;;;17.30;54.32
59190;BME280;50749;51.636;4.948;2023-01-15T03:26:32;99926.31;;;17.29;54.36
59190;BME280;50749;51.636;4.948;2023-01-15T03:28:59;99917.22;;;17.29;54.18
59190;BME280;50749;51.636;4.948;2023-01-15T03:31:28;99924.69;;;17.28;54.04
59190;BME280;50749;51.636;4.948;2023-01-15T03:33:54;99931.03;;;17.29;53.83
59190;BME280;50749;51.636;4.948;2023-01-15T03:36:20;99929.44;;;17.27;53.73
59190;BME280;50749;51.636;4.948;2023-01-15T03:38:47;99935.34;;;17.26;54.13
59190;BME280;50749;51.636;4.948;2023-01-15T03:41:24;99918.75;;;17.26;53.65
59190;BME280;50749;51.636;4.948;2023-01-15T03:49:55;99911.66;;;17.25;54.05
59190;BME280;50749;51.636;4.948;2023-01-15T03:52:32;99907.28;;;17.24;54.05
59190;BME280;50749;51.636;4.948;2023-01-15T03:55:54;99918.34;;;17.24;53.85
59190;BME280;50749;51.636;4.948;2023-01-15T04:00:59;99908.81;;;17.21;53.58
59190;BME280;50749;51.636;4.948;2023-01-15T04:03:27;99905.28;;;17.21;53.98
59190;BME280;50749;51.636;4.948;2023-01-15T04:05:56;99908.03;;;17.21;53.67
59190;BME280;50749;51.636;4.948;2023-01-15T04:08:24;99920.28;;;17.20;53.56
59190;BME280;50749;51.636;4.948;2023-01-15T04:10:56;99910.41;;;17.19;53.38
59190;BME280;50749;51.636;4.948;2023-01-15T04:13:22;99915.91;;;17.19;53.64
59190;BME280;50749;51.636;4.948;2023-01-15T04:15:49;99914.31;;;17.18;53.55
59190;BME280;50749;51.636;4.948;2023-01-15T04:18:15;99908.78;;;17.18;53.43
59190;BME280;50749;51.636;4.948;2023-01-15T04:20:41;99912.75;;;17.17;53.65
59190;BME280;50749;51.636;4.948;2023-01-15T04:23:07;99925.38;;;17.18;53.38
59190;BME280;50749;51.636;4.948;2023-01-15T04:25:32;99912.75;;;17.17;53.46
59190;BME280;50749;51.636;4.948;2023-01-15T04:27:58;99906.41;;;17.16;53.42
59190;BME280;50749;51.636;4.948;2023-01-15T04:30:24;99906.81;;;17.15;53.59
59190;BME280;50749;51.636;4.948;2023-01-15T04:32:51;99912.31;;;17.15;53.28
59190;BME280;50749;51.636;4.948;2023-01-15T04:35:18;99917.03;;;17.14;53.59
59190;BME280;50749;51.636;4.948;2023-01-15T04:37:44;99917.41;;;17.13;53.31
59190;BME280;50749;51.636;4.948;2023-01-15T04:40:11;99922.94;;;17.13;53.53
59190;BME280;50749;51.636;4.948;2023-01-15T04:42:55;99917.41;;;17.13;53.56
59190;BME280;50749;51.636;4.948;2023-01-15T04:45:42;99919.75;;;17.11;53.48
59190;BME280;50749;51.636;4.948;2023-01-15T04:48:08;99927.25;;;17.10;53.34
59190;BME280;50749;51.636;4.948;2023-01-15T04:50:34;99922.50;;;17.11;53.29
59190;BME280;50749;51.636;4.948;2023-01-15T04:53:00;99932.78;;;17.10;53.38
59190;BME280;50749;51.636;4.948;2023-01-15T04:55:26;99934.72;;;17.09;53.10
59190;BME280;50749;51.636;4.948;2023-01-15T04:57:51;99931.97;;;17.09;53.41
59190;BME280;50749;51.636;4.948;2023-01-15T05:00:17;99930.38;;;17.08;53.05
59190;BME280;50749;51.636;4.948;2023-01-15T05:02:43;99926.03;;;17.07;53.07
59190;BME280;50749;51.636;4.948;2023-01-15T05:05:09;99924.88;;;17.08;53.04
59190;BME280;50749;51.636;4.948;2023-01-15T05:07:35;99916.53;;;17.05;52.89
59190;BME280;50749;51.636;4.948;2023-01-15T05:10:01;99921.69;;;17.06;53.37
59190;BME280;50749;51.636;4.948;2023-01-15T05:12:26;99909.03;;;17.05;52.95
59190;BME280;50749;51.636;4.948;2023-01-15T05:14:52;99909.81;;;17.06;53.08
59190;BME280;50749;51.636;4.948;2023-01-15T05:17:18;99901.53;;;17.06;53.16
59190;BME280;50749;51.636;4.948;2023-01-15T05:19:44;99901.91;;;17.04;52.85
59190;BME280;50749;51.636;4.948;2023-01-15T05:22:10;99895.59;;;17.04;52.74
59190;BME280;50749;51.636;4.948;2023-01-15T05:24:36;99900.72;;;17.02;52.75
59190;BME280;50749;51.636;4.948;2023-01-15T05:27:02;99901.50;;;17.02;52.95
59190;BME280;50749;51.636;4.948;2023-01-15T05:29:30;99898.72;;;17.02;52.68
59190;BME280;50749;51.636;4.948;2023-01-15T05:31:55;99891.25;;;17.03;52.86
59190;BME280;50749;51.636;4.948;2023-01-15T05:34:21;99888.06;;;17.01;53.13
59190;BME280;50749;51.636;4.948;2023-01-15T05:36:47;99892.44;;;17.02;52.52
59190;BME280;50749;51.636;4.948;2023-01-15T05:39:13;99899.09;;;17.01;52.53
59190;BME280;50749;51.636;4.948;2023-01-15T05:41:39;99892.38;;;16.98;52.42
59190;BME280;50749;51.636;4.948;2023-01-15T05:46:46;99898.28;;;16.97;52.83
59190;BME280;50749;51.636;4.948;2023-01-15T05:49:15;99898.28;;;16.97;52.64
59190;BME280;50749;51.636;4.948;2023-01-15T05:51:42;99898.28;;;16.97;52.78
59190;BME280;50749;51.636;4.948;2023-01-15T05:54:12;99896.69;;;16.96;52.71
59190;BME280;50749;51.636;4.948;2023-01-15T05:56:38;99895.09;;;16.95;52.63
59190;BME280;50749;51.636;4.948;2023-01-15T05:59:05;99898.66;;;16.95;52.94
59190;BME280;50749;51.636;4.948;2023-01-15T06:01:31;99897.41;;;16.93;52.53
59190;BME280;50749;51.636;4.948;2023-01-15T06:03:59;99899.03;;;16.94;52.55
59190;BME280;50749;51.636;4.948;2023-01-15T06:06:26;99897.41;;;16.93;52.79
59190;BME280;50749;51.636;4.948;2023-01-15T06:08:52;99910.06;;;16.94;52.62
59190;BME280;50749;51.636;4.948;2023-01-15T06:11:18;99911.66;;;16.95;52.66
59190;BME280;50749;51.636;4.948;2023-01-15T06:13:44;99914.03;;;16.96;52.80
59190;BME280;50749;51.636;4.948;2023-01-15T06:16:10;99906.19;;;16.98;53.03
59190;BME280;50749;51.636;4.948;2023-01-15T06:18:37;99924.78;;;17.01;52.82
59190;BME280;50749;51.636;4.948;2023-01-15T06:21:04;99917.31;;;17.05;52.89
59190;BME280;50749;51.636;4.948;2023-01-15T06:23:30;99919.75;;;17.11;53.35
59190;BME280;50749;51.636;4.948;2023-01-15T06:26:00;99918.25;;;17.17;52.85
59190;BME280;50749;51.636;4.948;2023-01-15T06:28:27;99931.00;;;17.25;52.83
59190;BME280;50749;51.636;4.948;2023-01-15T06:30:52;99929.47;;;17.31;53.10
59190;BME280;50749;51.636;4.948;2023-01-15T06:33:18;99939.81;;;17.38;52.64
59190;BME280;50749;51.636;4.948;2023-01-15T06:35:44;99932.00;;;17.43;52.92
59190;BME280;50749;51.636;4.948;2023-01-15T06:38:10;99937.22;;;17.49;52.47
59190;BME280;50749;51.636;4.948;2023-01-15T06:40:36;99930.53;;;17.53;52.58
59190;BME280;50749;51.636;4.948;2023-01-15T06:43:02;99929.41;;;17.58;52.67
59190;BME280;50749;51.636;4.948;2023-01-15T06:45:46;99932.19;;;17.61;52.37
59190;BME280;50749;51.636;4.948;2023-01-15T06:48:50;99937.38;;;17.67;52.41
59190;BME280;50749;51.636;4.948;2023-01-15T06:51:16;99929.16;;;17.70;52.68
59190;BME280;50749;51.636;4.948;2023-01-15T06:53:46;99937.50;;;17.74;52.46
59190;BME280;50749;51.636;4.948;2023-01-15T06:56:13;99935.53;;;17.78;52.37
59190;BME280;50749;51.636;4.948;2023-01-15T06:58:40;99943.47;;;17.79;52.29
59190;BME280;50749;51.636;4.948;2023-01-15T07:01:10;99934.00;;;17.80;52.34
59190;BME280;50749;51.636;4.948;2023-01-15T07:03:37;99938.75;;;17.83;52.35
59190;BME280;50749;51.636;4.948;2023-01-15T07:06:07;99947.50;;;17.86;52.18
59190;BME280;50749;51.636;4.948;2023-01-15T07:08:34;99947.94;;;17.88;52.29
59190;BME280;50749;51.636;4.948;2023-01-15T07:11:04;99936.50;;;17.89;52.13
59190;BME280;50749;51.636;4.948;2023-01-15T07:13:30;99938.88;;;17.91;52.41
59190;BME280;50749;51.636;4.948;2023-01-15T07:16:00;99946.44;;;17.94;52.58
59190;BME280;50749;51.636;4.948;2023-01-15T07:18:28;99949.19;;;17.94;52.19
59190;BME280;50749;51.636;4.948;2023-01-15T07:20:55;99955.53;;;17.98;52.43
59190;BME280;50749;51.636;4.948;2023-01-15T07:23:23;99957.16;;;18.03;52.35
59190;BME280;50749;51.636;4.948;2023-01-15T07:25:53;99961.13;;;18.05;52.09
59190;BME280;50749;51.636;4.948;2023-01-15T07:28:21;99943.78;;;18.08;52.35
59190;BME280;50749;51.636;4.948;2023-01-15T07:30:47;99957.25;;;18.13;52.43
59190;BME280;50749;51.636;4.948;2023-01-15T07:33:13;99959.28;;;18.16;52.81
59190;BME280;50749;51.636;4.948;2023-01-15T07:35:39;99943.84;;;18.15;52.69
59190;BME280;50749;51.636;4.948;2023-01-15T07:38:05;99948.63;;;18.18;52.58
59190;BME280;50749;51.636;4.948;2023-01-15T07:40:30;99944.69;;;18.19;52.81
59190;BME280;50749;51.636;4.948;2023-01-15T07:42:57;99951.00;;;18.20;52.41
59190;BME280;50749;51.636;4.948;2023-01-15T07:45:42;99944.31;;;18.21;52.36
59190;BME280;50749;51.636;4.948;2023-01-15T07:48:31;99947.09;;;18.25;53.05
59190;BME280;50749;51.636;4.948;2023-01-15T07:51:32;99950.69;;;18.29;52.38
59190;BME280;50749;51.636;4.948;2023-01-15T07:53:58;99955.03;;;18.30;52.35
59190;BME280;50749;51.636;4.948;2023-01-15T07:56:24;99954.28;;;18.33;52.54
59190;BME280;50749;51.636;4.948;2023-01-15T07:58:50;99948.38;;;18.34;52.41
59190;BME280;50749;51.636;4.948;2023-01-15T08:01:15;99951.16;;;18.38;52.31
59190;BME280;50749;51.636;4.948;2023-01-15T08:03:41;99967.00;;;18.41;52.25
59190;BME280;50749;51.636;4.948;2023-01-15T08:06:07;99961.88;;;18.43;52.17
59190;BME280;50749;51.636;4.948;2023-01-15T08:08:33;99959.53;;;18.45;52.44
59190;BME280;50749;51.636;4.948;2023-01-15T08:11:01;99961.53;;;18.48;52.39
59190;BME280;50749;51.636;4.948;2023-01-15T08:13:46;99963.13;;;18.49;52.37
59190;BME280;50749;51.636;4.948;2023-01-15T08:16:34;99954.44;;;18.51;52.59
59190;BME280;50749;51.636;4.948;2023-01-15T08:19:00;99963.94;;;18.53;52.26
59190;BME280;50749;51.636;4.948;2023-01-15T08:21:26;99971.47;;;18.56;52.55
59190;BME280;50749;51.636;4.948;2023-01-15T08:23:51;99967.94;;;18.60;52.21
59190;BME280;50749;51.636;4.948;2023-01-15T08:26:18;99956.50;;;18.61;52.62
59190;BME280;50749;51.636;4.948;2023-01-15T08:28:44;99970.75;;;18.63;52.34
59190;BME280;50749;51.636;4.948;2023-01-15T08:31:10;99980.63;;;18.64;51.98
59190;BME280;50749;51.636;4.948;2023-01-15T08:33:36;99961.25;;;18.64;52.29
59190;BME280;50749;51.636;4.948;2023-01-15T08:36:01;99964.84;;;18.68;52.16
59190;BME280;50749;51.636;4.948;2023-01-15T08:38:28;99974.34;;;18.71;51.94
59190;BME280;50749;51.636;4.948;2023-01-15T08:40:54;99969.25;;;18.73;52.17
59190;BME280;50749;51.636;4.948;2023-01-15T08:43:27;99957.72;;;18.71;52.08
59190;BME280;50749;51.636;4.948;2023-01-15T08:45:57;99953.00;;;18.71;52.01
59190;BME280;50749;51.636;4.948;2023-01-15T08:48:24;99972.00;;;18.73;52.42
59190;BME280;50749;51.636;4.948;2023-01-15T08:50:50;99957.34;;;18.72;52.22
59190;BME280;50749;51.636;4.948;2023-01-15T08:53:17;99960.94;;;18.73;52.00
59190;BME280;50749;51.636;4.948;2023-01-15T08:55:46;99961.34;;;18.75;52.06
59190;BME280;50749;51.636;4.948;2023-01-15T08:58:12;99962.13;;;18.75;52.07
59190;BME280;50749;51.636;4.948;2023-01-15T09:00:38;99961.75;;;18.77;52.42
59190;BME280;50749;51.636;4.948;2023-01-15T09:03:04;99962.53;;;18.78;52.33
59190;BME280;50749;51.636;4.948;2023-01-15T09:05:30;99959.38;;;18.79;52.79
59190;BME280;50749;51.636;4.948;2023-01-15T09:07:56;99969.66;;;18.79;52.93
59190;BME280;50749;51.636;4.948;2023-01-15T09:10:22;99965.72;;;18.80;52.51
59190;BME280;50749;51.636;4.948;2023-01-15T09:12:48;99964.16;;;18.82;52.54
59190;BME280;50749;51.636;4.948;2023-01-15T09:15:15;99953.94;;;18.86;54.04
59190;BME280;50749;51.636;4.948;2023-01-15T09:17:41;99954.72;;;18.87;53.86
59190;BME280;50749;51.636;4.948;2023-01-15T09:20:09;99957.50;;;18.87;53.15
59190;BME280;50749;51.636;4.948;2023-01-15T09:22:35;99954.72;;;18.87;53.07
59190;BME280;50749;51.636;4.948;2023-01-15T09:25:01;99961.81;;;18.84;53.33
59190;BME280;50749;51.636;4.948;2023-01-15T09:27:28;99949.94;;;18.84;52.86
59190;BME280;50749;51.636;4.948;2023-01-15T09:29:54;99965.00;;;18.86;53.82
59190;BME280;50749;51.636;4.948;2023-01-15T09:32:21;99957.88;;;18.85;53.76
59190;BME280;50749;51.636;4.948;2023-01-15T09:34:46;99955.91;;;18.86;53.81
59190;BME280;50749;51.636;4.948;2023-01-15T09:37:12;99960.66;;;18.89;53.56
59190;BME280;50749;51.636;4.948;2023-01-15T09:39:38;99957.13;;;18.88;53.60
59190;BME280;50749;51.636;4.948;2023-01-15T09:45:07;99964.28;;;18.93;54.14
59190;BME280;50749;51.636;4.948;2023-01-15T09:50:41;99971.81;;;19.00;54.09
59190;BME280;50749;51.636;4.948;2023-01-15T09:55:43;99967.84;;;19.01;54.29
59190;BME280;50749;51.636;4.948;2023-01-15T09:58:12;99966.28;;;19.00;54.01
59190;BME280;50749;51.636;4.948;2023-01-15T10:00:43;99967.06;;;19.00;54.14
59190;BME280;50749;51.636;4.948;2023-01-15T10:05:41;99969.88;;;19.04;53.46
59190;BME280;50749;51.636;4.948;2023-01-15T10:08:13;99963.94;;;19.05;54.05
59190;BME280;50749;51.636;4.948;2023-01-15T10:10:46;99973.03;;;19.06;53.82
59190;BME280;50749;51.636;4.948;2023-01-15T10:13:36;99982.94;;;19.07;53.81
59190;BME280;50749;51.636;4.948;2023-01-15T10:16:04;99971.88;;;19.07;53.94
59190;BME280;50749;51.636;4.948;2023-01-15T10:18:30;99996.78;;;19.07;53.90
59190;BME280;50749;51.636;4.948;2023-01-15T10:23:46;99980.16;;;19.03;53.69
59190;BME280;50749;51.636;4.948;2023-01-15T10:28:58;99976.56;;;19.03;53.90
59190;BME280;50749;51.636;4.948;2023-01-15T10:31:50;99984.50;;;19.04;54.14
59190;BME280;50749;51.636;4.948;2023-01-15T10:34:36;99981.34;;;19.06;54.04
59190;BME280;50749;51.636;4.948;2023-01-15T10:37:36;99971.47;;;19.05;54.47
59190;BME280;50749;51.636;4.948;2023-01-15T10:46:21;99986.47;;;19.04;53.83
59190;BME280;50749;51.636;4.948;2023-01-15T10:48:58;99991.22;;;19.03;54.25
59190;BME280;50749;51.636;4.948;2023-01-15T10:51:29;99985.69;;;19.03;54.08
59190;BME280;50749;51.636;4.948;2023-01-15T10:54:03;99978.94;;;19.01;54.03
59190;BME280;50749;51.636;4.948;2023-01-15T11:04:49;99978.91;;;18.93;53.38
59190;BME280;50749;51.636;4.948;2023-01-15T11:07:15;99977.69;;;18.91;53.44
59190;BME280;50749;51.636;4.948;2023-01-15T11:09:42;99973.72;;;18.85;53.76
59190;BME280;50749;51.636;4.948;2023-01-15T11:14:44;99991.50;;;18.84;53.54
59190;BME280;50749;51.636;4.948;2023-01-15T11:17:34;99961.38;;;18.82;53.27
59190;BME280;50749;51.636;4.948;2023-01-15T11:20:32;99982.34;;;18.80;53.74
59190;BME280;50749;51.636;4.948;2023-01-15T11:23:08;99980.34;;;18.77;52.98
59190;BME280;50749;51.636;4.948;2023-01-15T11:25:35;99986.25;;;18.75;52.77
59190;BME280;50749;51.636;4.948;2023-01-15T11:28:06;99996.50;;;18.71;53.26
59190;BME280;50749;51.636;4.948;2023-01-15T11:30:37;100001.28;;;18.74;53.68
59190;BME280;50749;51.636;4.948;2023-01-15T11:33:06;100005.25;;;18.77;53.76
59190;BME280;50749;51.636;4.948;2023-01-15T11:35:52;99991.81;;;18.79;53.28
59190;BME280;50749;51.636;4.948;2023-01-15T11:38:28;99993.38;;;18.76;53.04
59190;BME280;50749;51.636;4.948;2023-01-15T11:40:56;99982.28;;;18.76;52.97
59190;BME280;50749;51.636;4.948;2023-01-15T11:43:26;99987.03;;;18.75;52.96
59190;BME280;50749;51.636;4.948;2023-01-15T11:46:27;99985.13;;;18.80;52.95
59190;BME280;50749;51.636;4.948;2023-01-15T11:49:19;100000.47;;;18.70;51.50
59190;BME280;50749;51.636;4.948;2023-01-15T11:52:07;99992.16;;;18.70;52.33
59190;BME280;50749;51.636;4.948;2023-01-15T11:54:41;100009.56;;;18.70;52.54
59190;BME280;50749;51.636;4.948;2023-01-15T11:57:08;99991.69;;;18.64;51.33
59190;BME280;50749;51.636;4.948;2023-01-15T11:59:36;99999.69;;;18.73;51.46
59190;BME280;50749;51.636;4.948;2023-01-15T12:02:17;99999.34;;;18.78;51.91
59190;BME280;50749;51.636;4.948;2023-01-15T12:04:52;99989.44;;;18.81;51.20
59190;BME280;50749;51.636;4.948;2023-01-15T12:07:23;99995.03;;;18.84;51.16
59190;BME280;50749;51.636;4.948;2023-01-15T12:22:58;99977.56;;;18.77;50.61
59190;BME280;50749;51.636;4.948;2023-01-15T12:28:26;99964.06;;;18.68;51.05
59190;BME280;50749;51.636;4.948;2023-01-15T12:31:05;99977.94;;;18.71;50.46
59190;BME280;50749;51.636;4.948;2023-01-15T12:33:56;99966.84;;;18.71;51.49
59190;BME280;50749;51.636;4.948;2023-01-15T12:39:16;99974.75;;;18.69;50.82
59190;BME280;50749;51.636;4.948;2023-01-15T12:41:46;99971.94;;;18.66;50.29
59190;BME280;50749;51.636;4.948;2023-01-15T12:58:46;99959.66;;;18.63;50.94
59190;BME280;50749;51.636;4.948;2023-01-15T13:01:33;99956.06;;;18.59;51.96
59190;BME280;50749;51.636;4.948;2023-01-15T13:04:10;99952.91;;;18.61;52.36
59190;BME280;50749;51.636;4.948;2023-01-15T13:06:41;99951.34;;;18.60;52.33
59190;BME280;50749;51.636;4.948;2023-01-15T13:09:22;99950.16;;;18.64;52.41
59190;BME280;50749;51.636;4.948;2023-01-15T13:11:53;99952.16;;;18.64;52.75
59190;BME280;50749;51.636;4.948;2023-01-15T13:14:20;99962.09;;;18.72;52.67
59190;BME280;50749;51.636;4.948;2023-01-15T13:28:39;99982.47;;;18.94;52.48
59190;BME280;50749;51.636;4.948;2023-01-15T13:31:20;99995.53;;;18.97;52.42
59190;BME280;50749;51.636;4.948;2023-01-15T13:33:55;99980.13;;;19.00;52.52
59190;BME280;50749;51.636;4.948;2023-01-15T13:38:52;99977.78;;;19.02;52.37
59190;BME280;50749;51.636;4.948;2023-01-15T13:41:27;99973.81;;;19.03;52.13
59190;BME280;50749;51.636;4.948;2023-01-15T13:44:19;99971.47;;;19.05;52.04
59190;BME280;50749;51.636;4.948;2023-01-15T13:46:48;99984.94;;;19.06;52.10
59190;BME280;50749;51.636;4.948;2023-01-15T13:49:30;99980.97;;;19.07;52.24
59190;BME280;50749;51.636;4.948;2023-01-15T13:51:57;99988.09;;;19.08;52.44
59190;BME280;50749;51.636;4.948;2023-01-15T13:54:30;99991.25;;;19.07;52.43
59190;BME280;50749;51.636;4.948;2023-01-15T13:57:23;99980.16;;;19.07;51.97
59190;BME280;50749;51.636;4.948;2023-01-15T13:59:49;99994.78;;;19.00;52.07
59190;BME280;50749;51.636;4.948;2023-01-15T14:02:28;99989.22;;;19.00;51.87
59190;BME280;50749;51.636;4.948;2023-01-15T14:04:55;99998.31;;;19.01;51.90
59190;BME280;50749;51.636;4.948;2023-01-15T14:07:34;100002.28;;;19.00;51.95
59190;BME280;50749;51.636;4.948;2023-01-15T14:21:40;100001.88;;;18.98;51.85
59190;BME280;50749;51.636;4.948;2023-01-15T14:34:57;100012.19;;;19.01;52.15
59190;BME280;50749;51.636;4.948;2023-01-15T14:37:26;100018.13;;;19.03;51.70
59190;BME280;50749;51.636;4.948;2023-01-15T14:39:59;100014.19;;;19.04;51.87
59190;BME280;50749;51.636;4.948;2023-01-15T14:42:30;100022.09;;;19.02;52.42
59190;BME280;50749;51.636;4.948;2023-01-15T14:45:22;100007.09;;;19.06;51.54
59190;BME280;50749;51.636;4.948;2023-01-15T14:47:52;100028.84;;;19.08;52.06
59190;BME280;50749;51.636;4.948;2023-01-15T14:50:39;100022.94;;;19.13;51.92
59190;BME280;50749;51.636;4.948;2023-01-15T14:55:57;100040.72;;;19.08;52.73
59190;BME280;50749;51.636;4.948;2023-01-15T15:01:09;100035.09;;;18.98;53.74
59190;BME280;50749;51.636;4.948;2023-01-15T15:03:44;100043.84;;;19.00;52.51
59190;BME280;50749;51.636;4.948;2023-01-15T15:06:12;100052.09;;;18.96;51.36
59190;BME280;50749;51.636;4.948;2023-01-15T15:08:39;100037.41;;;18.88;51.86
59190;BME280;50749;51.636;4.948;2023-01-15T15:11:14;100046.91;;;18.87;52.16
59190;BME280;50749;51.636;4.948;2023-01-15T15:14:04;100038.50;;;18.80;52.60
59190;BME280;50749;51.636;4.948;2023-01-15T15:16:39;100040.88;;;18.78;52.41
59190;BME280;50749;51.636;4.948;2023-01-15T15:19:14;100051.09;;;18.74;52.66
59190;BME280;50749;51.636;4.948;2023-01-15T15:21:44;100058.19;;;18.68;52.87
59190;BME280;50749;51.636;4.948;2023-01-15T15:24:30;100065.28;;;18.65;52.76
59190;BME280;50749;51.636;4.948;2023-01-15T15:27:12;100049.03;;;18.64;52.40
59190;BME280;50749;51.636;4.948;2023-01-15T15:29:38;100050.25;;;18.63;52.15
59190;BME280;50749;51.636;4.948;2023-01-15T15:32:04;100054.97;;;18.62;53.44
59190;BME280;50749;51.636;4.948;2023-01-15T15:34:32;100057.34;;;18.64;53.87